Terminal Aerodrome Forecast
Issued by NWS

Home | Current Version | Previous Version | Text Only | Print | Product List | Glossary On
Versions: 1 2 3 4 5 6 7 8 9 10 11 12 13
329
FTUS43 KMQT 261729
TAFSAW
TAF
KSAW 261729Z 2618/2718 24013G23KT P6SM VCSH OVC030
     FM270600 25011G18KT P6SM VCSH OVC020
     FM270800 25009KT P6SM -SHRA OVC015
     FM271500 28010KT 6SM -SHRA OVC015=

USA.gov is the U.S. government's official web portal to all federal, state and local government web resources and services.